Time;durP1;ratioP1;P1;durP2;ratioP2;P2;SDS_P1;SDS_P2;PMS_P1;PMS_P2;Temp;Humidity;BMP_temperature;BMP_pressure;BME280_temperature;BME280_humidity;BME280_pressure;Samples;Min_cycle;Max_cycle;Signal;HPM_P1;HPM_P2
2023/06/12 00:01:37;;;;;;;6.53;5.50;;;20.90;40.90;;;22.68;33.70;97425.88;5079300;28;20403;-59
2023/06/12 00:04:04;;;;;;;5.07;4.57;;;20.90;40.90;;;22.65;34.04;97422.84;5079099;28;20063;-60
2023/06/12 00:06:33;;;;;;;6.35;4.90;;;20.90;40.70;;;22.65;33.95;97430.97;5080623;28;20056;-59
2023/06/12 00:09:01;;;;;;;5.53;5.03;;;21.00;40.50;;;22.64;34.07;97422.00;5058182;28;20049;-59
2023/06/12 00:11:29;;;;;;;6.03;5.07;;;21.00;40.60;;;22.65;34.01;97425.53;5080731;28;20043;-59
2023/06/12 00:13:57;;;;;;;8.75;5.97;;;21.00;40.50;;;22.67;33.97;97428.84;5081962;28;20427;-59
2023/06/12 00:16:25;;;;;;;6.65;5.18;;;21.00;40.30;;;22.67;33.81;97428.84;5083746;28;20447;-59
2023/06/12 00:18:53;;;;;;;5.63;5.10;;;21.10;40.60;;;22.66;33.87;97429.88;5081599;28;20071;-58
2023/06/12 00:21:22;;;;;;;6.75;6.05;;;21.00;40.70;;;22.64;33.81;97427.41;5082935;28;20045;-60
2023/06/12 00:23:50;;;;;;;5.70;5.10;;;20.90;40.80;;;22.63;34.23;97419.53;5085712;28;20048;-59
2023/06/12 00:26:18;;;;;;;5.90;5.30;;;20.90;41.00;;;22.61;34.17;97422.50;5084759;28;20054;-59
2023/06/12 00:28:46;;;;;;;6.38;5.22;;;20.80;41.00;;;22.58;34.27;97423.78;5055818;28;20296;-58
2023/06/12 00:31:14;;;;;;;5.65;5.00;;;20.80;41.10;;;22.57;34.05;97426.75;5055350;28;20048;-59
2023/06/12 00:33:41;;;;;;;5.47;4.95;;;20.80;42.00;;;22.55;34.31;97421.56;5077016;28;20055;-59
2023/06/12 00:36:09;;;;;;;6.20;5.50;;;20.70;41.30;;;22.51;34.33;97423.13;5084798;28;20040;-58
2023/06/12 00:38:37;;;;;;;5.90;5.20;;;20.70;41.40;;;22.48;34.26;97422.78;5063951;28;20055;-59
2023/06/12 00:41:04;;;;;;;6.28;5.68;;;20.70;41.60;;;22.45;34.21;97426.81;5055007;28;20064;-59
2023/06/12 00:43:33;;;;;;;5.65;5.03;;;20.70;41.50;;;22.41;34.57;97417.50;5083772;28;20045;-60
2023/06/12 00:46:01;;;;;;;5.82;5.22;;;20.60;41.50;;;22.36;34.29;97418.25;5066260;28;20155;-59
2023/06/12 00:48:29;;;;;;;5.88;5.15;;;20.70;41.20;;;22.33;34.27;97424.16;5084204;28;20395;-59
2023/06/12 00:50:58;;;;;;;5.45;4.82;;;20.70;41.00;;;22.32;34.26;97421.69;5055164;28;20048;-59
2023/06/12 00:53:26;;;;;;;6.53;5.13;;;20.80;40.90;;;22.32;34.23;97421.69;5038478;28;20040;-59
2023/06/12 00:55:55;;;;;;;5.10;4.60;;;20.80;40.80;;;22.30;34.54;97421.09;5083683;28;20032;-58
2023/06/12 00:58:22;;;;;;;7.85;5.60;;;20.80;40.70;;;22.29;34.57;97414.84;5057794;28;20068;-59
2023/06/12 01:00:54;;;;;;;5.75;4.95;;;20.80;40.70;;;22.32;34.48;97421.69;5084905;28;20066;-58
2023/06/12 01:03:24;;;;;;;5.70;5.20;;;20.80;40.70;;;22.28;34.54;97417.81;5084628;28;20047;-58
2023/06/12 01:05:55;;;;;;;5.75;5.15;;;20.80;40.90;;;22.29;34.29;97422.97;5054776;28;20049;-58
2023/06/12 01:09:02;;;;;;;5.97;5.00;;;20.70;40.90;;;22.26;34.31;97420.75;5046998;28;20051;-59
2023/06/12 01:11:34;;;;;;;5.72;4.78;;;20.70;41.50;;;22.31;34.54;97426.25;5057620;28;20496;-59
2023/06/12 01:14:02;;;;;;;8.20;5.50;;;20.70;41.30;;;22.26;34.38;97423.47;5084314;28;20051;-59
2023/06/12 01:16:29;;;;;;;7.38;5.10;;;20.70;41.00;;;22.20;34.45;97419.00;5057570;28;20088;-58
2023/06/12 01:18:57;;;;;;;7.47;4.88;;;20.70;41.00;;;22.16;34.95;97425.97;5066109;28;20403;-59
2023/06/12 01:21:29;;;;;;;7.32;5.63;;;20.70;41.00;;;22.16;34.61;97425.97;5057850;28;20057;-59
2023/06/12 01:24:21;;;;;;;7.53;4.95;;;20.70;41.30;;;22.15;34.77;97427.84;5057903;28;20053;-60
2023/06/12 01:27:06;;;;;;;5.85;5.20;;;20.70;41.70;;;22.17;34.67;97425.69;5051396;28;20071;-59
2023/06/12 01:30:14;;;;;;;5.10;4.60;;;20.60;41.90;;;22.16;34.94;97431.38;5042300;28;20059;-59
2023/06/12 01:32:50;;;;;;;5.38;4.70;;;20.50;42.50;;;22.17;34.95;97430.31;5066078;28;20059;-58
2023/06/12 01:35:24;;;;;;;5.90;5.28;;;20.40;42.20;;;22.14;35.28;97433.50;5050800;28;20045;-59
2023/06/12 01:38:14;;;;;;;6.00;5.40;;;20.40;42.70;;;22.11;35.17;97434.00;5046341;28;20044;-59
2023/06/12 01:40:44;;;;;;;5.70;5.13;;;20.40;43.20;;;22.08;35.00;97429.88;5064718;28;20052;-58
2023/06/12 01:43:12;;;;;;;6.80;5.78;;;20.20;42.90;;;21.99;35.14;97428.59;5058710;28;20511;-59
2023/06/12 01:45:41;;;;;;;5.38;4.82;;;20.10;43.10;;;21.94;35.53;97439.31;5082671;28;20507;-59
2023/06/12 01:48:10;;;;;;;6.45;5.82;;;20.00;43.30;;;21.86;35.57;97428.88;5083786;28;20032;-59
2023/06/12 01:50:38;;;;;;;6.60;5.95;;;19.90;43.60;;;21.78;35.90;97428.16;5056493;28;20056;-59
2023/06/12 01:53:07;;;;;;;6.07;5.35;;;19.80;43.70;;;21.71;35.84;97427.47;5083535;28;20044;-59
2023/06/12 01:55:36;;;;;;;7.93;5.38;;;19.80;44.10;;;21.66;35.80;97429.25;5056286;28;20044;-59
2023/06/12 01:58:03;;;;;;;10.23;5.63;;;19.80;44.30;;;21.58;35.95;97419.59;5065208;28;20044;-58
2023/06/12 02:00:53;;;;;;;6.93;4.85;;;19.70;44.40;;;21.53;36.18;97420.31;5056554;28;20059;-58
2023/06/12 02:03:23;;;;;;;5.72;5.05;;;19.60;44.50;;;21.48;36.25;97424.78;5053786;28;20056;-59
2023/06/12 02:05:51;;;;;;;6.22;5.47;;;19.60;44.70;;;21.43;36.58;97426.31;5052864;28;20052;-59
2023/06/12 02:08:18;;;;;;;5.82;5.10;;;19.50;45.10;;;21.38;36.27;97428.03;5050172;28;20048;-58
2023/06/12 02:10:46;;;;;;;5.53;4.97;;;19.50;45.00;;;21.33;36.63;97426.06;5070080;28;20044;-58
2023/06/12 02:13:13;;;;;;;6.07;5.47;;;19.50;45.20;;;21.30;36.73;97420.28;5053848;28;20045;-58
2023/06/12 02:15:41;;;;;;;7.78;5.47;;;19.40;45.10;;;21.26;36.91;97425.34;5055050;28;20059;-60
2023/06/12 02:18:08;;;;;;;8.63;5.65;;;19.40;45.50;;;21.23;36.96;97428.53;5059101;28;20480;-59
2023/06/12 02:20:36;;;;;;;7.95;5.90;;;19.40;45.40;;;21.19;37.13;97433.59;5054300;28;20045;-59
2023/06/12 02:23:04;;;;;;;5.78;5.22;;;19.30;45.70;;;21.15;37.04;97421.59;5060497;28;20393;-58
2023/06/12 02:25:32;;;;;;;6.00;5.40;;;19.30;45.70;;;21.13;37.02;97423.72;5053853;28;20040;-58
2023/06/12 02:28:00;;;;;;;7.25;5.88;;;19.30;45.70;;;21.11;37.05;97424.97;5060324;28;20040;-59
2023/06/12 02:30:28;;;;;;;6.47;5.38;;;19.30;46.10;;;21.07;37.20;97426.50;5044605;28;20045;-59
2023/06/12 02:32:55;;;;;;;6.55;5.82;;;19.20;45.80;;;21.00;37.63;97424.75;5079755;28;20041;-59
2023/06/12 02:35:23;;;;;;;7.18;6.47;;;19.10;46.40;;;20.94;37.59;97425.69;5052867;28;20044;-59
2023/06/12 02:37:50;;;;;;;7.57;5.82;;;19.00;46.60;;;20.91;37.26;97428.84;5055358;28;20047;-59
2023/06/12 02:40:18;;;;;;;5.82;5.28;;;19.00;46.60;;;20.85;37.51;97424.38;5058267;28;20515;-60
2023/06/12 02:42:46;;;;;;;7.20;5.63;;;18.90;46.80;;;20.80;37.76;97424.22;5055569;28;20049;-59
2023/06/12 02:45:14;;;;;;;7.05;5.80;;;18.90;47.10;;;20.77;38.08;97424.72;5082336;28;20048;-59
2023/06/12 02:47:42;;;;;;;6.95;6.25;;;18.80;47.40;;;20.71;38.12;97422.94;5056558;28;20052;-59
2023/06/12 02:50:10;;;;;;;6.60;6.00;;;18.80;47.50;;;20.68;37.83;97429.59;5059158;28;20500;-59
2023/06/12 02:53:01;;;;;;;6.20;5.60;;;18.70;47.40;;;20.64;37.84;97426.53;5063716;28;20048;-59
2023/06/12 02:55:29;;;;;;;7.22;6.53;;;18.60;47.80;;;20.59;38.47;97425.56;5070338;28;20048;-59
2023/06/12 02:57:57;;;;;;;7.82;6.50;;;18.60;48.00;;;20.54;38.55;97420.03;5052844;28;20048;-59
2023/06/12 03:00:24;;;;;;;7.10;5.80;;;18.60;48.30;;;20.51;38.77;97424.03;5052464;28;20041;-59
2023/06/12 03:02:55;;;;;;;7.65;6.10;;;18.50;48.40;;;20.50;38.43;97427.75;5052582;28;20048;-59
2023/06/12 03:05:25;;;;;;;9.20;6.65;;;18.50;48.40;;;20.46;38.45;97429.28;5052631;28;20058;-59
2023/06/12 03:07:55;;;;;;;7.18;6.28;;;18.50;48.70;;;20.42;38.63;97430.81;5052584;28;20060;-59
2023/06/12 03:10:23;;;;;;;7.18;6.45;;;18.50;48.50;;;20.39;39.07;97436.66;5052303;28;20508;-58
2023/06/12 03:12:50;;;;;;;9.88;5.72;;;18.40;49.10;;;20.35;39.09;97443.56;5060745;28;20472;-58
2023/06/12 03:15:18;;;;;;;6.60;5.93;;;18.40;48.90;;;20.32;38.89;97446.75;5052308;28;20044;-59
2023/06/12 03:17:46;;;;;;;7.97;6.03;;;18.40;49.00;;;20.30;39.16;97436.16;5060368;28;20044;-59
2023/06/12 03:20:15;;;;;;;6.95;6.10;;;18.30;49.10;;;20.26;39.11;97449.31;5070747;28;20411;-59
2023/06/12 03:22:43;;;;;;;6.90;6.20;;;18.30;49.20;;;20.24;39.38;97454.13;5070819;28;20051;-58
2023/06/12 03:25:11;;;;;;;6.97;6.18;;;18.30;49.40;;;20.22;39.47;97452.66;5052923;28;20480;-59
2023/06/12 03:27:39;;;;;;;6.30;5.70;;;18.30;49.80;;;20.18;39.54;97457.72;5051832;28;20061;-59
2023/06/12 03:30:07;;;;;;;9.00;6.30;;;18.20;49.70;;;20.15;39.63;97455.47;5032572;28;20053;-58
2023/06/12 03:32:35;;;;;;;10.27;7.20;;;18.20;49.90;;;20.13;39.75;97454.06;5049841;28;20059;-58
2023/06/12 03:35:04;;;;;;;7.22;6.53;;;18.10;50.10;;;20.10;39.71;97455.31;5036354;28;20045;-58
2023/06/12 03:37:34;;;;;;;6.68;5.68;;;18.10;50.40;;;20.09;39.92;97448.28;5052225;28;20053;-59
2023/06/12 03:40:07;;;;;;;6.90;5.63;;;18.10;50.40;;;20.08;39.90;97452.00;5052734;28;20041;-58
2023/06/12 03:42:38;;;;;;;8.00;6.68;;;18.10;50.30;;;20.05;39.92;97449.78;5036452;28;20536;-58
2023/06/12 03:45:07;;;;;;;10.75;6.07;;;18.10;50.30;;;20.03;39.88;97457.28;5070690;28;20045;-59
2023/06/12 03:47:35;;;;;;;10.07;6.43;;;18.00;50.60;;;19.99;39.95;97454.22;5051752;28;20097;-59
2023/06/12 03:50:07;;;;;;;8.88;6.47;;;18.00;50.60;;;19.97;39.97;97460.91;5046182;28;20045;-59
2023/06/12 03:52:35;;;;;;;11.45;7.05;;;18.00;50.60;;;19.94;40.19;97464.03;5056117;28;20044;-58
2023/06/12 03:55:03;;;;;;;11.07;7.65;;;18.00;50.90;;;19.92;40.33;97466.97;5067268;28;20044;-59
2023/06/12 03:57:30;;;;;;;7.38;5.70;;;18.00;50.80;;;19.92;40.56;97475.06;5059352;28;20044;-60
2023/06/12 03:59:58;;;;;;;6.80;5.78;;;18.00;51.00;;;19.90;40.56;97463.66;5085539;28;20043;-60
2023/06/12 04:02:26;;;;;;;7.38;5.78;;;18.00;51.10;;;19.91;40.68;97480.69;5060923;28;20504;-59
2023/06/12 04:04:54;;;;;;;5.93;5.38;;;18.00;51.30;;;19.91;40.88;97473.44;5083374;28;20059;-58
2023/06/12 04:07:22;;;;;;;8.10;5.88;;;18.10;51.50;;;19.90;40.83;97481.75;5085807;28;20036;-60
2023/06/12 04:09:50;;;;;;;6.50;5.63;;;18.10;51.30;;;19.91;40.91;97481.53;5041571;28;20420;-60
2023/06/12 04:12:17;;;;;;;7.43;5.60;;;18.10;51.30;;;19.92;40.78;97482.34;5039522;28;20056;-59
2023/06/12 04:14:45;;;;;;;8.98;5.75;;;18.00;51.20;;;19.92;41.21;97485.06;5073851;28;20048;-59
2023/06/12 04:17:12;;;;;;;9.07;6.10;;;18.00;51.80;;;19.92;41.14;97485.88;5073721;28;20036;-59
2023/06/12 04:19:40;;;;;;;7.50;5.80;;;18.00;51.50;;;19.92;41.13;97495.88;5073630;28;20056;-59
2023/06/12 04:22:12;;;;;;;7.97;6.28;;;18.00;51.90;;;19.90;41.20;97493.38;5055929;28;20055;-60
2023/06/12 04:24:42;;;;;;;7.60;6.72;;;18.00;51.80;;;19.93;40.97;97500.19;5055743;28;20067;-58
2023/06/12 04:27:10;;;;;;;6.63;5.93;;;18.10;51.80;;;19.93;41.28;97498.34;5055004;28;20059;-58
2023/06/12 04:29:38;;;;;;;7.93;6.43;;;18.00;52.00;;;19.94;41.28;97505.38;5051923;28;20056;-56
2023/06/12 04:32:07;;;;;;;6.68;5.82;;;18.10;52.00;;;19.94;41.38;97497.28;5039000;28;20071;-59
2023/06/12 04:34:43;;;;;;;9.43;6.38;;;18.10;52.00;;;19.96;41.41;97500.59;5055796;28;20417;-58
2023/06/12 04:37:13;;;;;;;7.85;6.53;;;18.10;51.90;;;19.99;41.60;97500.16;5047776;28;20040;-58
2023/06/12 04:39:41;;;;;;;7.63;6.43;;;18.20;51.70;;;20.02;41.32;97505.09;5055416;28;20052;-58
2023/06/12 04:42:10;;;;;;;6.63;5.88;;;18.30;51.50;;;20.05;41.28;97504.66;5055633;28;20040;-58
2023/06/12 04:44:39;;;;;;;7.72;6.30;;;18.40;51.40;;;20.10;41.22;97505.84;5055398;28;20064;-58
2023/06/12 04:47:11;;;;;;;5.95;5.30;;;18.40;51.20;;;20.13;41.33;97505.41;5034478;28;20041;-57
2023/06/12 04:49:43;;;;;;;6.38;5.10;;;18.40;51.20;;;20.18;41.51;97510.94;5047999;28;20063;-58
2023/06/12 04:52:12;;;;;;;6.10;5.50;;;18.50;51.30;;;20.21;41.38;97507.78;5047598;28;20041;-58
2023/06/12 04:54:44;;;;;;;7.95;6.32;;;18.60;51.50;;;20.25;41.68;97507.09;5054838;28;20040;-58
2023/06/12 04:57:12;;;;;;;7.18;5.95;;;18.60;51.50;;;20.30;41.35;97514.56;5062183;28;20055;-58
2023/06/12 04:59:42;;;;;;;7.07;6.05;;;18.70;51.40;;;20.33;41.78;97518.66;5054025;28;20071;-59
2023/06/12 05:02:10;;;;;;;7.57;6.07;;;18.70;51.60;;;20.35;41.72;97513.88;5046522;28;20400;-58
2023/06/12 05:04:40;;;;;;;8.07;5.88;;;18.70;51.80;;;20.37;42.01;97522.56;5054761;28;20055;-59
2023/06/12 05:07:18;;;;;;;7.70;5.57;;;18.70;52.20;;;20.39;42.16;97523.16;5051330;28;20059;-58
2023/06/12 05:09:49;;;;;;;10.10;6.25;;;18.70;52.70;;;20.38;42.01;97521.53;5051841;28;20048;-59
2023/06/12 05:12:17;;;;;;;6.97;6.28;;;18.70;52.60;;;20.39;42.06;97525.88;5054311;28;20052;-59
2023/06/12 05:14:45;;;;;;;6.32;5.68;;;18.70;52.70;;;20.42;42.40;97528.13;5081009;28;20044;-59
2023/06/12 05:17:12;;;;;;;6.50;5.85;;;18.70;53.10;;;20.46;42.46;97529.31;5062074;28;20443;-57
2023/06/12 05:19:40;;;;;;;8.35;5.72;;;18.80;53.10;;;20.51;42.76;97528.63;5058827;28;20420;-57
2023/06/12 05:22:08;;;;;;;6.65;5.72;;;18.90;53.00;;;20.55;42.81;97532.53;5054340;28;20052;-58
2023/06/12 05:24:37;;;;;;;6.05;5.38;;;18.90;53.00;;;20.60;42.68;97536.22;5054672;28;20056;-59
2023/06/12 05:27:07;;;;;;;7.75;6.63;;;19.00;53.10;;;20.64;43.07;97536.59;5053846;28;20056;-58
2023/06/12 05:29:35;;;;;;;7.00;6.30;;;19.00;53.10;;;20.68;42.91;97540.50;5053804;28;20412;-58
2023/06/12 05:32:05;;;;;;;7.43;6.20;;;19.10;53.30;;;20.73;42.93;97529.00;5054541;28;20048;-58
2023/06/12 05:34:34;;;;;;;7.28;6.57;;;19.20;53.20;;;20.74;42.58;97536.06;5054047;28;20052;-59
2023/06/12 05:37:03;;;;;;;7.25;6.28;;;19.20;53.80;;;20.74;42.80;97533.34;5053804;28;20623;-59
2023/06/12 05:39:31;;;;;;;9.90;6.47;;;19.30;52.80;;;20.76;43.04;97529.38;5054100;28;20040;-59
2023/06/12 05:41:59;;;;;;;7.32;6.25;;;19.30;53.20;;;20.81;43.06;97537.63;5053845;28;20051;-61
2023/06/12 05:44:27;;;;;;;10.82;6.50;;;19.30;53.40;;;20.86;42.87;97536.94;5054026;28;20048;-59
2023/06/12 05:46:56;;;;;;;8.30;6.30;;;19.30;53.20;;;20.89;43.17;97531.06;5067999;28;20076;-59
2023/06/12 05:49:23;;;;;;;9.85;6.45;;;19.40;53.50;;;20.93;42.95;97528.72;5080283;28;20049;-60
2023/06/12 05:51:51;;;;;;;7.10;6.13;;;19.40;53.00;;;20.93;43.09;97531.44;5081335;28;20052;-59
2023/06/12 05:54:18;;;;;;;8.40;6.05;;;19.50;52.80;;;20.96;42.59;97534.50;5061505;28;20412;-59
2023/06/12 05:56:48;;;;;;;7.72;6.18;;;19.50;52.60;;;20.99;42.92;97528.63;5028475;28;20504;-59
2023/06/12 05:59:16;;;;;;;10.90;6.45;;;19.50;52.70;;;21.03;42.67;97535.25;5072351;28;20071;-59
2023/06/12 06:01:44;;;;;;;8.98;6.47;;;19.50;52.90;;;21.08;42.58;97536.44;5072745;28;20041;-59
2023/06/12 06:04:12;;;;;;;9.00;6.22;;;19.50;53.10;;;21.12;42.84;97527.59;5053969;28;20049;-58
2023/06/12 06:06:40;;;;;;;7.35;6.65;;;19.60;52.80;;;21.17;42.84;97533.16;5079894;28;20142;-58
2023/06/12 06:09:11;;;;;;;8.10;6.28;;;19.70;52.70;;;21.20;42.82;97523.72;5057227;28;20055;-58
2023/06/12 06:11:38;;;;;;;6.68;5.95;;;19.80;52.70;;;21.24;42.85;97527.63;5065249;28;20060;-59
2023/06/12 06:14:06;;;;;;;8.93;5.88;;;19.70;52.70;;;21.26;42.79;97541.75;5080709;28;20040;-59
2023/06/12 06:16:35;;;;;;;8.40;6.60;;;19.80;52.80;;;21.31;42.93;97527.53;5053113;28;20043;-59
2023/06/12 06:19:21;;;;;;;10.85;7.05;;;19.90;52.70;;;21.37;42.30;97534.72;5046887;28;20043;-59
2023/06/12 06:21:49;;;;;;;7.38;6.07;;;19.90;52.50;;;21.39;42.85;97533.41;5033354;28;20421;-60
2023/06/12 06:24:17;;;;;;;12.02;7.50;;;19.90;52.40;;;21.43;42.73;97526.50;5045227;28;20048;-60
2023/06/12 06:26:45;;;;;;;10.02;6.95;;;20.00;52.20;;;21.49;42.55;97529.34;5053442;28;20056;-60
2023/06/12 06:29:13;;;;;;;9.60;7.25;;;20.00;52.30;;;21.53;42.61;97535.94;5053260;28;20045;-60
2023/06/12 06:31:42;;;;;;;11.65;6.78;;;20.10;52.40;;;21.56;42.57;97536.31;5078791;28;20044;-61
2023/06/12 06:34:11;;;;;;;8.10;5.93;;;20.20;52.30;;;21.60;42.55;97534.78;5056488;28;20044;-60
2023/06/12 06:36:38;;;;;;;9.85;6.47;;;20.20;52.20;;;21.66;42.46;97545.75;5057733;28;20079;-57
2023/06/12 06:39:07;;;;;;;8.32;6.50;;;20.30;52.00;;;21.64;42.61;97537.84;5046784;28;20044;-57
2023/06/12 06:41:37;;;;;;;10.65;6.70;;;20.40;51.70;;;21.62;42.76;97532.66;5058551;28;20047;-57
2023/06/12 06:44:05;;;;;;;8.50;6.05;;;20.40;51.90;;;21.65;43.03;97538.66;5081745;28;20420;-56
2023/06/12 06:46:32;;;;;;;10.50;7.07;;;20.40;52.70;;;21.68;42.58;97536.31;5058837;28;20500;-56
2023/06/12 06:49:00;;;;;;;8.98;6.90;;;20.50;52.00;;;21.74;42.72;97538.06;5054112;28;20055;-56
2023/06/12 06:51:32;;;;;;;9.35;6.10;;;20.60;52.00;;;21.82;42.91;97540.41;5059987;28;20049;-57
2023/06/12 06:54:00;;;;;;;7.82;6.05;;;20.60;52.00;;;21.90;42.46;97544.66;5053950;28;20040;-56
2023/06/12 06:56:27;;;;;;;7.55;5.93;;;20.70;51.80;;;21.98;42.60;97543.47;5078695;28;20036;-55
2023/06/12 06:58:55;;;;;;;9.57;6.35;;;20.70;51.70;;;22.03;42.61;97540.88;5056161;28;20048;-56
2023/06/12 07:01:24;;;;;;;7.50;6.40;;;20.80;51.60;;;22.10;43.08;97543.47;5071231;28;20438;-58
2023/06/12 07:03:52;;;;;;;8.68;6.15;;;20.90;51.90;;;22.16;42.40;97540.66;5053036;28;20045;-56
2023/06/12 07:06:21;;;;;;;6.93;5.60;;;20.90;51.70;;;22.23;42.43;97541.31;5040586;28;20060;-56
2023/06/12 07:08:48;;;;;;;7.63;5.78;;;21.00;51.00;;;22.30;41.99;97537.72;5057031;28;20056;-56
2023/06/12 07:11:19;;;;;;;7.07;6.28;;;21.10;51.00;;;22.35;42.16;97537.78;5052451;28;20120;-56
2023/06/12 07:13:46;;;;;;;6.78;5.97;;;21.20;50.70;;;22.40;41.58;97530.59;5078120;28;20044;-56
2023/06/12 07:16:15;;;;;;;9.68;6.30;;;21.20;50.20;;;22.45;41.79;97529.03;5055419;28;20062;-56
2023/06/12 07:23:40;;;;;;;7.15;5.78;;;21.30;49.90;;;22.60;41.62;97534.78;5067752;28;20047;-55
2023/06/12 07:26:24;;;;;;;7.30;6.00;;;21.40;50.00;;;22.65;41.28;97534.88;5039289;28;20513;-56
2023/06/12 07:29:00;;;;;;;7.63;6.55;;;21.50;49.50;;;22.71;40.96;97535.81;5053068;28;20063;-55
2023/06/12 07:31:30;;;;;;;7.13;5.93;;;21.50;49.50;;;22.75;41.46;97542.41;5051734;28;20063;-55
2023/06/12 07:33:59;;;;;;;10.10;6.97;;;21.60;49.60;;;22.80;41.04;97545.22;5037165;28;20059;-54
2023/06/12 07:36:31;;;;;;;7.45;6.72;;;21.60;49.40;;;22.84;40.85;97543.66;5068358;28;20527;-55
2023/06/12 07:38:58;;;;;;;6.97;6.25;;;21.70;49.30;;;22.89;40.59;97535.59;5059901;28;20044;-55
2023/06/12 07:41:26;;;;;;;6.10;5.60;;;21.70;48.80;;;22.90;40.74;97539.16;5064170;28;20411;-54
2023/06/12 07:43:54;;;;;;;7.07;6.38;;;21.80;49.00;;;22.94;40.86;97543.03;5082994;28;20397;-54
2023/06/12 07:46:22;;;;;;;7.45;6.68;;;21.80;49.20;;;22.99;40.64;97538.53;5056041;28;20052;-55
2023/06/12 07:48:50;;;;;;;6.43;5.30;;;21.80;48.80;;;23.06;40.67;97548.44;5054376;28;20064;-55
2023/06/12 07:51:18;;;;;;;8.85;5.97;;;21.90;48.70;;;23.11;40.48;97534.94;5046308;28;20048;-55
2023/06/12 07:53:46;;;;;;;8.05;6.13;;;22.00;48.30;;;23.14;40.21;97526.31;5043250;28;20496;-52
2023/06/12 07:56:17;;;;;;;7.00;6.30;;;22.00;48.10;;;23.16;40.06;97533.13;5042926;28;20037;-55
2023/06/12 07:58:48;;;;;;;9.98;6.35;;;22.00;48.10;;;23.21;40.07;97528.88;5050094;28;20515;-52
2023/06/12 08:01:16;;;;;;;6.32;5.72;;;22.00;47.80;;;23.25;39.77;97528.13;5045569;28;20040;-55
2023/06/12 08:03:45;;;;;;;9.45;6.03;;;22.10;47.70;;;23.30;39.67;97528.22;5042635;28;20048;-55
2023/06/12 08:06:17;;;;;;;9.65;6.45;;;22.10;47.30;;;23.34;39.63;97528.53;5037093;28;20509;-51
2023/06/12 08:08:47;;;;;;;12.00;7.15;;;22.20;47.10;;;23.34;39.62;97526.66;5056037;28;20037;-54
2023/06/12 08:11:17;;;;;;;8.68;6.60;;;22.20;47.20;;;23.41;39.62;97533.81;5066596;28;20059;-51
2023/06/12 08:13:49;;;;;;;7.60;6.80;;;22.20;47.50;;;23.44;39.65;97519.72;5060922;28;20052;-55
2023/06/12 08:16:20;;;;;;;9.07;6.80;;;22.30;47.60;;;23.47;39.83;97521.97;5081814;28;20045;-52
2023/06/12 08:18:49;;;;;;;7.25;6.40;;;22.30;47.50;;;23.50;39.76;97522.31;5061226;28;20049;-57
2023/06/12 08:21:19;;;;;;;9.90;6.28;;;22.30;47.70;;;23.54;39.97;97519.91;5057735;28;20044;-59
2023/06/12 08:23:46;;;;;;;7.60;6.45;;;22.40;48.10;;;23.61;39.70;97511.59;5060871;28;20064;-57
2023/06/12 08:26:16;;;;;;;11.35;7.07;;;22.40;47.50;;;23.64;39.43;97520.06;5081281;28;20407;-58
2023/06/12 08:28:50;;;;;;;6.97;6.30;;;22.50;47.40;;;23.70;39.46;97513.63;5055410;28;20401;-57
2023/06/12 08:31:21;;;;;;;12.10;7.03;;;22.60;47.20;;;23.74;39.34;97513.97;5055328;28;20047;-57
2023/06/12 08:33:48;;;;;;;7.18;6.47;;;22.60;47.20;;;23.78;39.50;97521.38;5074006;28;20069;-57
2023/06/12 08:36:16;;;;;;;8.15;7.38;;;22.60;47.00;;;23.81;39.08;97509.22;5056364;28;20044;-57
2023/06/12 08:38:44;;;;;;;8.40;6.53;;;22.60;46.80;;;23.81;38.22;97505.66;5061391;28;20527;-58
2023/06/12 08:41:20;;;;;;;7.72;6.82;;;22.60;45.20;;;23.82;38.60;97505.41;5056416;28;20453;-58
2023/06/12 08:43:50;;;;;;;6.85;5.97;;;22.60;45.60;;;23.87;38.11;97508.22;5060640;28;20385;-57
2023/06/12 08:46:24;;;;;;;6.90;5.72;;;22.70;45.40;;;23.97;38.17;97504.81;5057330;28;20151;-58
2023/06/12 08:48:51;;;;;;;7.40;6.00;;;22.80;44.90;;;24.06;37.44;97502.47;5059498;28;20052;-58
2023/06/12 08:51:20;;;;;;;6.20;5.60;;;23.00;44.30;;;24.14;37.11;97507.50;5058573;28;20055;-57
2023/06/12 08:53:48;;;;;;;6.10;5.18;;;23.10;43.70;;;24.22;36.54;97503.50;5062173;28;20059;-59
2023/06/12 08:56:16;;;;;;;7.40;5.95;;;23.10;42.60;;;24.27;36.19;97500.84;5057062;28;20045;-59
2023/06/12 08:58:45;;;;;;;5.30;4.78;;;23.20;42.30;;;24.35;36.34;97503.94;5062493;28;20420;-59
2023/06/12 09:01:14;;;;;;;5.78;5.20;;;23.30;42.50;;;24.46;35.89;97496.72;5083879;28;20041;-58
2023/06/12 09:03:48;;;;;;;6.40;5.80;;;23.40;42.00;;;24.54;35.17;97495.47;5063286;28;20416;-59
2023/06/12 09:06:18;;;;;;;6.35;5.50;;;23.50;39.90;;;24.63;34.77;97496.69;5056988;28;20045;-59
2023/06/12 09:08:46;;;;;;;7.05;6.35;;;23.60;40.20;;;24.74;35.41;97500.34;5085192;28;20048;-58
2023/06/12 09:11:14;;;;;;;13.80;5.88;;;23.70;41.20;;;24.82;35.46;97501.78;5084333;28;20499;-58
2023/06/12 09:13:42;;;;;;;7.97;6.22;;;23.80;40.70;;;24.87;35.29;97497.22;5081681;28;20419;-59
2023/06/12 09:16:14;;;;;;;7.45;6.15;;;23.90;41.70;;;24.92;34.96;97491.81;5081333;28;20496;-58
2023/06/12 09:18:50;;;;;;;14.88;7.57;;;23.90;39.60;;;24.95;34.58;97496.75;5061892;28;20052;-57
2023/06/12 09:21:22;;;;;;;7.45;5.18;;;23.90;39.50;;;25.04;34.44;97496.25;5082758;28;20052;-59
2023/06/12 09:23:53;;;;;;;7.30;6.00;;;24.00;39.40;;;25.10;33.46;97487.88;5061244;28;20051;-59
2023/06/12 09:26:24;;;;;;;10.52;5.93;;;24.10;38.50;;;25.15;33.31;97495.28;5082309;28;20051;-59
2023/06/12 09:28:54;;;;;;;6.63;5.15;;;24.10;38.20;;;25.15;33.28;97490.66;5084665;28;20055;-58
2023/06/12 09:31:22;;;;;;;6.22;5.63;;;24.10;37.70;;;25.09;33.07;97485.44;5048031;28;20049;-57
2023/06/12 09:33:54;;;;;;;6.53;5.90;;;24.00;37.80;;;25.11;32.95;97494.97;5046956;28;20051;-59
2023/06/12 09:36:27;;;;;;;6.68;5.55;;;24.00;37.90;;;25.15;33.18;97485.19;5082238;28;20045;-57
2023/06/12 09:38:55;;;;;;;6.07;5.50;;;24.10;37.50;;;25.17;33.17;97497.75;5084384;28;20499;-57
2023/06/12 09:41:24;;;;;;;6.88;6.13;;;24.10;38.10;;;25.22;32.94;97495.94;5082054;28;20040;-57
2023/06/12 09:44:01;;;;;;;7.35;5.95;;;24.20;37.90;;;25.28;32.60;97489.44;5080845;28;20048;-58
2023/06/12 09:46:31;;;;;;;9.40;5.97;;;24.20;37.70;;;25.39;33.19;97492.25;5057019;28;20044;-57
2023/06/12 09:48:59;;;;;;;8.52;5.95;;;24.40;38.00;;;25.46;33.17;97493.66;5058991;28;20419;-58
2023/06/12 09:51:27;;;;;;;6.25;5.72;;;24.50;38.30;;;25.52;32.82;97480.91;5082596;28;20051;-58
2023/06/12 09:53:57;;;;;;;6.47;5.63;;;24.60;38.00;;;25.59;33.12;97478.78;5083956;28;20052;-58
2023/06/12 09:56:26;;;;;;;7.68;5.65;;;24.60;37.90;;;25.65;33.33;97472.28;5054320;28;20500;-53
2023/06/12 09:58:56;;;;;;;7.78;6.53;;;24.70;38.30;;;25.68;32.70;97482.63;5083266;28;20048;-54
2023/06/12 10:01:25;;;;;;;6.45;5.85;;;24.80;37.90;;;25.73;32.76;97488.13;5082402;28;20411;-50
2023/06/12 10:03:58;;;;;;;8.85;6.10;;;24.70;37.60;;;25.73;32.28;97479.94;5080378;28;20138;-50
2023/06/12 10:06:27;;;;;;;6.13;5.60;;;24.70;37.00;;;25.72;32.18;97483.75;5055882;28;20044;-55
2023/06/12 10:08:56;;;;;;;6.40;5.22;;;24.70;36.80;;;25.73;31.73;97484.59;5060345;28;20041;-55
2023/06/12 10:11:25;;;;;;;9.88;6.07;;;24.70;36.60;;;25.73;31.57;97474.50;5045767;28;20048;-52
2023/06/12 10:13:53;;;;;;;8.05;6.03;;;24.70;36.10;;;25.73;31.46;97482.66;5053549;28;20384;-54
2023/06/12 10:16:21;;;;;;;6.20;5.60;;;24.70;36.20;;;25.77;31.32;97477.53;5054405;28;20041;-54
2023/06/12 10:18:55;;;;;;;6.38;5.35;;;24.80;35.90;;;25.79;31.53;97467.16;5060781;28;20519;-55
2023/06/12 10:21:23;;;;;;;7.32;6.72;;;24.80;36.00;;;25.85;31.36;97485.19;5079732;28;20055;-55
2023/06/12 10:23:52;;;;;;;8.68;5.75;;;24.80;35.80;;;25.97;30.75;97478.75;5077270;28;20044;-55
2023/06/12 10:26:22;;;;;;;6.20;5.65;;;25.00;35.60;;;26.08;30.77;97484.00;5079127;28;20043;-55
2023/06/12 10:28:50;;;;;;;7.63;5.47;;;25.20;35.20;;;26.18;30.99;97472.31;5053763;28;20049;-55
2023/06/12 10:31:18;;;;;;;5.55;5.03;;;25.20;34.90;;;26.27;30.33;97454.34;5079391;28;20102;-55
2023/06/12 10:34:20;;;;;;;6.35;5.75;;;25.30;34.50;;;26.32;30.57;97459.78;5083276;28;20436;-55